createdAt,value
2022-11-09T00:00:56.724Z,18.70
2022-11-09T00:03:24.560Z,18.70
2022-11-09T00:05:56.448Z,18.50
2022-11-09T00:08:24.297Z,18.70
2022-11-09T00:10:52.197Z,18.70
2022-11-09T00:13:21.848Z,18.80
2022-11-09T00:15:49.975Z,18.80
2022-11-09T00:18:17.867Z,18.80
2022-11-09T00:20:48.023Z,18.70
2022-11-09T00:23:17.144Z,18.80
2022-11-09T00:25:45.514Z,18.90
2022-11-09T00:28:13.429Z,19.00
2022-11-09T00:30:43.236Z,19.00
2022-11-09T00:33:12.229Z,19.00
2022-11-09T00:35:40.489Z,18.90
2022-11-09T00:38:08.373Z,18.80
2022-11-09T00:40:36.231Z,18.80
2022-11-09T00:43:04.324Z,18.70
2022-11-09T00:45:32.144Z,18.70
2022-11-09T00:48:01.320Z,18.90
2022-11-09T00:50:29.712Z,18.80
2022-11-09T00:52:57.596Z,18.60
2022-11-09T00:55:25.412Z,18.60
2022-11-09T00:57:54.027Z,18.60
2022-11-09T01:00:24.752Z,18.60
2022-11-09T01:02:52.651Z,18.60
2022-11-09T01:05:22.084Z,18.60
2022-11-09T01:07:49.958Z,18.70
2022-11-09T01:10:18.082Z,18.80
2022-11-09T01:12:45.931Z,18.70
2022-11-09T01:15:13.874Z,18.70
2022-11-09T01:17:41.718Z,18.90
2022-11-09T01:20:10.469Z,18.90
2022-11-09T01:22:39.685Z,18.90
2022-11-09T01:25:08.220Z,18.90
2022-11-09T01:27:36.551Z,18.70
2022-11-09T01:30:04.563Z,18.60
2022-11-09T01:32:33.414Z,18.70
2022-11-09T01:35:01.225Z,18.60
2022-11-09T01:37:35.393Z,18.60
2022-11-09T01:40:05.212Z,18.60
2022-11-09T01:42:37.222Z,18.50
2022-11-09T01:45:31.167Z,18.70
2022-11-09T01:48:07.536Z,18.60
2022-11-09T01:50:43.157Z,18.40
2022-11-09T01:53:18.919Z,18.20
2022-11-09T01:55:56.003Z,18.10
2022-11-09T01:58:28.564Z,18.10
2022-11-09T02:01:02.804Z,18.00
2022-11-09T02:03:36.247Z,17.90
2022-11-09T02:06:07.664Z,17.90
2022-11-09T02:08:35.911Z,18.10
2022-11-09T02:11:09.931Z,18.10
2022-11-09T02:13:40.661Z,18.00
2022-11-09T02:16:11.524Z,18.00
2022-11-09T02:18:42.668Z,18.10
2022-11-09T02:21:12.007Z,17.90
2022-11-09T02:23:40.445Z,17.90
2022-11-09T02:26:13.232Z,18.10
2022-11-09T02:28:43.244Z,17.90
2022-11-09T02:31:15.712Z,17.90
2022-11-09T02:33:54.829Z,17.90
2022-11-09T02:36:24.788Z,18.00
2022-11-09T02:38:54.274Z,18.00
2022-11-09T02:41:23.750Z,18.00
2022-11-09T02:43:53.752Z,18.20
2022-11-09T02:46:26.667Z,18.20
2022-11-09T02:48:54.467Z,18.20
2022-11-09T02:51:23.613Z,18.30
2022-11-09T02:53:51.386Z,18.30
2022-11-09T02:56:19.231Z,18.10
2022-11-09T02:58:47.045Z,18.30
2022-11-09T03:01:15.133Z,18.20
2022-11-09T03:03:43.058Z,18.20
2022-11-09T03:06:11.000Z,18.20
2022-11-09T03:08:40.135Z,18.10
2022-11-09T03:11:07.937Z,18.20
2022-11-09T03:13:36.176Z,17.90
2022-11-09T03:16:08.345Z,17.70
2022-11-09T03:18:36.127Z,17.70
2022-11-09T03:21:04.716Z,17.60
2022-11-09T03:23:32.520Z,17.70
2022-11-09T03:26:01.799Z,17.60
2022-11-09T03:28:29.617Z,17.50
2022-11-09T03:30:57.462Z,17.60
2022-11-09T03:33:25.274Z,17.60
2022-11-09T03:35:53.116Z,17.50
2022-11-09T03:38:20.927Z,17.50
2022-11-09T03:40:49.856Z,17.50
2022-11-09T03:43:19.441Z,17.50
2022-11-09T03:45:48.105Z,17.10
2022-11-09T03:48:16.049Z,17.30
2022-11-09T03:50:43.903Z,17.20
2022-11-09T03:53:12.392Z,17.20
2022-11-09T03:55:40.749Z,17.20
2022-11-09T03:58:10.667Z,17.10
2022-11-09T04:00:40.116Z,17.10
2022-11-09T04:03:07.925Z,16.90
2022-11-09T04:05:35.946Z,17.10
2022-11-09T04:08:03.773Z,17.20
2022-11-09T04:10:32.122Z,17.20
2022-11-09T04:12:59.906Z,17.00
2022-11-09T04:15:27.748Z,17.10
2022-11-09T04:17:57.865Z,17.10
2022-11-09T04:20:26.947Z,17.00
2022-11-09T04:22:59.188Z,17.10
2022-11-09T04:25:27.617Z,17.10
2022-11-09T04:27:56.666Z,17.10
2022-11-09T04:30:25.037Z,17.10
2022-11-09T04:32:52.872Z,17.30
2022-11-09T04:35:22.176Z,17.20
2022-11-09T04:37:55.212Z,17.40
2022-11-09T04:40:23.446Z,17.50
2022-11-09T04:42:51.268Z,17.50
2022-11-09T04:45:19.720Z,17.30
2022-11-09T04:47:47.561Z,17.40
2022-11-09T04:50:15.606Z,17.30
2022-11-09T04:52:44.883Z,17.30
2022-11-09T04:55:12.758Z,17.30
2022-11-09T04:57:40.607Z,17.50
2022-11-09T05:00:09.901Z,17.40
2022-11-09T05:02:37.754Z,17.40
2022-11-09T05:05:06.285Z,17.40
2022-11-09T05:07:34.067Z,17.50
2022-11-09T05:10:03.230Z,17.40
2022-11-09T05:12:31.046Z,17.30
2022-11-09T05:14:58.896Z,17.40
2022-11-09T05:17:26.723Z,17.30
2022-11-09T05:19:56.012Z,17.50
2022-11-09T05:22:41.375Z,17.60
2022-11-09T05:25:11.219Z,17.60
2022-11-09T05:27:39.861Z,17.50
2022-11-09T05:30:09.040Z,17.30
2022-11-09T05:32:39.531Z,17.20
2022-11-09T05:35:08.247Z,17.10
2022-11-09T05:37:36.174Z,17.20
2022-11-09T05:40:04.074Z,17.10
2022-11-09T05:42:33.238Z,17.00
2022-11-09T05:45:21.111Z,17.10
2022-11-09T05:47:48.915Z,16.90
2022-11-09T05:50:17.583Z,16.90
2022-11-09T05:52:45.448Z,16.90
2022-11-09T05:55:13.374Z,17.00
2022-11-09T05:57:42.538Z,16.70
2022-11-09T06:00:12.170Z,16.70
2022-11-09T06:02:39.971Z,16.90
2022-11-09T06:05:08.531Z,17.10
2022-11-09T06:07:39.798Z,17.00
2022-11-09T06:10:09.099Z,16.90
2022-11-09T06:12:37.067Z,16.90
2022-11-09T06:15:07.099Z,16.80
2022-11-09T06:17:34.969Z,16.90
2022-11-09T06:20:04.122Z,17.00
2022-11-09T06:22:32.209Z,17.00
2022-11-09T06:25:00.142Z,17.00
2022-11-09T06:27:28.169Z,17.10
2022-11-09T06:29:55.999Z,17.20
2022-11-09T06:32:25.185Z,17.20
2022-11-09T06:34:53.070Z,17.20
2022-11-09T06:37:20.867Z,17.00
2022-11-09T06:39:48.737Z,16.80
2022-11-09T06:42:16.635Z,16.80
2022-11-09T06:44:44.549Z,16.80
2022-11-09T06:47:12.426Z,16.90
2022-11-09T06:49:41.622Z,16.80
2022-11-09T06:52:10.339Z,16.70
2022-11-09T06:54:38.195Z,16.80
2022-11-09T06:57:06.024Z,16.70
2022-11-09T06:59:33.806Z,16.70
2022-11-09T07:02:02.036Z,16.50
2022-11-09T07:04:29.982Z,16.60
2022-11-09T07:06:59.174Z,16.40
2022-11-09T07:09:27.560Z,16.50
2022-11-09T07:11:55.704Z,16.40
2022-11-09T07:14:23.654Z,16.40
2022-11-09T07:16:51.464Z,16.40
2022-11-09T07:19:19.318Z,16.40
2022-11-09T07:21:47.145Z,16.40
2022-11-09T07:24:16.338Z,16.40
2022-11-09T07:26:44.140Z,16.40
2022-11-09T07:29:11.922Z,16.40
2022-11-09T07:31:39.717Z,16.40
2022-11-09T07:34:07.591Z,16.40
2022-11-09T07:36:36.680Z,16.40
2022-11-09T07:39:05.107Z,16.50
2022-11-09T07:41:35.038Z,16.50
2022-11-09T07:44:03.055Z,16.50
2022-11-09T07:46:31.099Z,16.50
2022-11-09T07:48:58.871Z,16.70
2022-11-09T07:51:26.829Z,16.80
2022-11-09T07:53:54.624Z,16.70
2022-11-09T07:56:22.670Z,16.60
2022-11-09T07:58:52.206Z,16.50
2022-11-09T08:01:20.006Z,16.60
2022-11-09T08:03:47.825Z,16.70
2022-11-09T08:06:18.610Z,17.00
2022-11-09T08:08:47.011Z,17.10
2022-11-09T08:11:14.931Z,17.20
2022-11-09T08:13:43.238Z,17.10
2022-11-09T08:16:12.690Z,17.20
2022-11-09T08:18:40.496Z,17.40
2022-11-09T08:21:09.355Z,17.30
2022-11-09T08:23:37.177Z,17.50
2022-11-09T08:26:07.254Z,17.50
2022-11-09T08:28:35.901Z,17.50
2022-11-09T08:31:06.398Z,17.40
2022-11-09T08:33:39.542Z,17.50
2022-11-09T08:36:11.692Z,17.40
2022-11-09T08:38:41.219Z,17.50
2022-11-09T08:41:13.405Z,17.50
2022-11-09T08:43:41.853Z,17.50
2022-11-09T08:46:09.731Z,17.50
2022-11-09T08:48:39.136Z,17.50
2022-11-09T08:51:07.260Z,17.50
2022-11-09T08:53:35.251Z,17.60
2022-11-09T08:56:03.111Z,17.60
2022-11-09T08:58:31.273Z,17.40
2022-11-09T09:01:09.940Z,17.20
2022-11-09T09:03:43.086Z,17.40
2022-11-09T09:06:10.888Z,17.40
2022-11-09T09:08:38.656Z,17.50
2022-11-09T09:11:07.228Z,17.50
2022-11-09T09:13:40.470Z,17.60
2022-11-09T09:16:12.501Z,17.70
2022-11-09T09:18:41.725Z,17.80
2022-11-09T09:21:11.191Z,18.00
2022-11-09T09:23:40.201Z,17.80
2022-11-09T09:26:08.243Z,17.80
2022-11-09T09:28:36.336Z,18.00
2022-11-09T09:31:04.812Z,18.10
2022-11-09T09:33:32.704Z,17.90
2022-11-09T09:36:02.008Z,17.90
2022-11-09T09:38:30.685Z,17.90
2022-11-09T09:41:00.451Z,17.90
2022-11-09T09:43:32.327Z,17.90
2022-11-09T09:46:01.783Z,17.90
2022-11-09T09:48:38.154Z,17.80
2022-11-09T09:51:13.231Z,17.80
2022-11-09T09:53:48.096Z,17.80
2022-11-09T09:56:20.077Z,17.70
2022-11-09T09:58:53.800Z,17.60
2022-11-09T10:01:24.457Z,17.70
2022-11-09T10:03:52.439Z,17.90
2022-11-09T10:06:38.736Z,17.90
2022-11-09T10:09:17.950Z,18.20
2022-11-09T10:12:00.735Z,18.10
2022-11-09T10:14:55.658Z,18.20
2022-11-09T10:17:33.187Z,18.10
2022-11-09T10:20:12.291Z,18.30
2022-11-09T10:22:52.193Z,18.60
2022-11-09T10:25:43.350Z,18.50
2022-11-09T10:28:15.890Z,18.30
2022-11-09T10:30:44.071Z,18.20
2022-11-09T10:33:18.258Z,18.30
2022-11-09T10:35:53.256Z,18.60
2022-11-09T10:38:26.868Z,18.40
2022-11-09T10:41:01.082Z,18.30
2022-11-09T10:43:29.040Z,18.30
2022-11-09T10:46:04.772Z,18.30
2022-11-09T10:48:35.693Z,18.10
2022-11-09T10:51:04.150Z,18.10
2022-11-09T10:53:34.772Z,18.10
2022-11-09T10:56:20.381Z,17.90
2022-11-09T10:58:51.207Z,17.90
2022-11-09T11:01:21.331Z,18.10
2022-11-09T11:03:51.708Z,18.10
2022-11-09T11:06:27.861Z,18.10
2022-11-09T11:09:16.655Z,18.20
2022-11-09T11:11:45.548Z,18.40
2022-11-09T11:14:22.668Z,18.20
2022-11-09T11:16:52.907Z,18.40
2022-11-09T11:19:35.909Z,18.10
2022-11-09T11:22:23.601Z,17.80
2022-11-09T11:24:58.102Z,18.00
2022-11-09T11:27:30.970Z,18.20
2022-11-09T11:30:06.546Z,18.10
2022-11-09T11:32:34.754Z,18.20
2022-11-09T11:35:04.688Z,18.40
2022-11-09T11:37:44.967Z,18.30
2022-11-09T11:40:23.741Z,18.40
2022-11-09T11:43:07.957Z,18.50
2022-11-09T11:45:42.418Z,18.60
2022-11-09T11:48:34.411Z,18.90
2022-11-09T11:51:08.831Z,18.70
2022-11-09T11:53:48.687Z,18.80
2022-11-09T11:56:29.022Z,18.80
2022-11-09T11:59:11.028Z,19.00
2022-11-09T12:01:50.419Z,19.10
2022-11-09T12:04:33.806Z,18.90
2022-11-09T12:07:12.334Z,18.60
2022-11-09T12:10:03.941Z,18.80
2022-11-09T12:12:43.190Z,19.00
2022-11-09T12:15:24.720Z,19.10
2022-11-09T12:18:04.365Z,19.30
2022-11-09T12:20:37.517Z,19.10
2022-11-09T12:23:18.943Z,19.30
2022-11-09T12:25:55.459Z,19.20
2022-11-09T12:28:41.869Z,19.00
2022-11-09T12:31:21.462Z,18.80
2022-11-09T12:33:55.324Z,18.70
2022-11-09T12:36:29.390Z,18.60
2022-11-09T12:39:02.993Z,18.60
2022-11-09T12:41:35.593Z,18.90
2022-11-09T12:44:15.886Z,19.00
2022-11-09T12:46:49.694Z,19.10
2022-11-09T12:49:29.988Z,19.20
2022-11-09T12:51:59.090Z,19.10
2022-11-09T12:54:28.024Z,18.90
2022-11-09T12:57:00.180Z,19.00
2022-11-09T12:59:48.133Z,19.00
2022-11-09T13:02:25.258Z,18.90
2022-11-09T13:04:57.716Z,18.60
2022-11-09T13:07:42.005Z,18.50
2022-11-09T13:10:26.210Z,18.70
2022-11-09T13:13:05.115Z,18.60
2022-11-09T13:15:35.490Z,18.50
2022-11-09T13:18:06.063Z,18.60
2022-11-09T13:20:55.453Z,18.70
2022-11-09T13:27:00.040Z,18.20
2022-11-09T13:29:29.924Z,18.20
2022-11-09T13:32:27.460Z,18.30
2022-11-09T13:34:57.009Z,18.40
2022-11-09T13:37:49.179Z,18.40
2022-11-09T13:40:44.619Z,18.50
2022-11-09T13:43:19.153Z,18.70
2022-11-09T13:45:48.882Z,18.80
2022-11-09T13:48:34.672Z,18.80
2022-11-09T13:51:05.412Z,18.50
2022-11-09T13:53:52.799Z,18.30
2022-11-09T13:56:27.729Z,18.40
2022-11-09T13:58:58.160Z,18.40
2022-11-09T14:01:27.669Z,18.20
2022-11-09T14:03:56.964Z,18.20
2022-11-09T14:06:25.211Z,18.10
2022-11-09T14:08:53.325Z,18.20
2022-11-09T14:11:44.917Z,18.30
2022-11-09T14:14:30.569Z,18.10
2022-11-09T14:17:05.908Z,18.30
2022-11-09T14:19:45.555Z,18.20
2022-11-09T14:22:17.776Z,18.20
2022-11-09T14:24:46.158Z,18.20
2022-11-09T14:27:17.825Z,18.40
2022-11-09T14:29:51.148Z,18.10
2022-11-09T14:32:31.370Z,17.90
2022-11-09T14:35:27.293Z,18.00
2022-11-09T14:37:56.958Z,18.00
2022-11-09T14:40:27.902Z,18.00
2022-11-09T14:42:58.555Z,18.10
2022-11-09T14:45:27.935Z,17.90
2022-11-09T14:47:59.617Z,17.90
2022-11-09T14:50:32.096Z,17.70
2022-11-09T14:53:01.975Z,17.80
2022-11-09T14:55:30.345Z,17.90
2022-11-09T14:57:59.230Z,18.10
2022-11-09T15:00:31.406Z,18.00
2022-11-09T15:02:59.812Z,17.90
2022-11-09T15:05:39.003Z,17.90
2022-11-09T15:08:14.779Z,17.90
2022-11-09T15:10:48.543Z,17.80
2022-11-09T15:13:16.477Z,17.60
2022-11-09T15:15:52.038Z,17.60
2022-11-09T15:18:23.147Z,17.60
2022-11-09T15:21:11.989Z,17.50
2022-11-09T15:23:41.788Z,17.60
2022-11-09T15:26:37.408Z,17.60
2022-11-09T15:29:31.085Z,17.60
2022-11-09T15:32:01.182Z,17.50
2022-11-09T15:34:36.233Z,17.50
2022-11-09T15:37:19.306Z,17.40
2022-11-09T15:39:47.168Z,17.40
2022-11-09T15:42:15.701Z,17.40
2022-11-09T15:44:43.576Z,17.40
2022-11-09T15:47:31.419Z,17.50
2022-11-09T15:50:01.086Z,17.40
2022-11-09T15:52:30.397Z,17.30
2022-11-09T15:54:59.272Z,17.40
2022-11-09T15:57:27.198Z,17.30
2022-11-09T15:59:55.015Z,17.30
2022-11-09T16:02:22.940Z,17.20
2022-11-09T16:04:50.772Z,17.20
2022-11-09T16:07:18.636Z,17.50
2022-11-09T16:09:47.825Z,17.50
2022-11-09T16:12:15.658Z,17.30
2022-11-09T16:14:43.546Z,17.30
2022-11-09T16:17:11.363Z,17.20
2022-11-09T16:19:39.530Z,17.10
2022-11-09T16:22:08.449Z,17.20
2022-11-09T16:24:36.507Z,17.30
2022-11-09T16:27:12.877Z,17.10
2022-11-09T16:29:50.179Z,16.90
2022-11-09T16:32:18.184Z,17.00
2022-11-09T16:34:53.504Z,17.10
2022-11-09T16:37:38.273Z,17.00
2022-11-09T16:40:09.172Z,17.00
2022-11-09T16:42:38.590Z,17.10
2022-11-09T16:45:10.384Z,17.10
2022-11-09T16:47:41.917Z,17.10
2022-11-09T16:50:10.486Z,17.00
2022-11-09T16:52:38.330Z,17.00
2022-11-09T16:55:07.704Z,17.00
2022-11-09T16:57:35.606Z,17.00
2022-11-09T17:00:05.979Z,17.00
2022-11-09T17:02:33.992Z,17.10
2022-11-09T17:05:01.798Z,17.00
2022-11-09T17:07:30.177Z,17.00
2022-11-09T17:09:57.942Z,16.90
2022-11-09T17:12:25.757Z,16.90
2022-11-09T17:14:53.656Z,17.10
2022-11-09T17:17:23.149Z,17.00
2022-11-09T17:19:51.246Z,17.10
2022-11-09T17:22:19.452Z,17.20
2022-11-09T17:24:47.278Z,17.20
2022-11-09T17:27:15.244Z,17.00
2022-11-09T17:29:44.162Z,17.10
2022-11-09T17:32:12.272Z,17.10
2022-11-09T17:34:41.447Z,17.10
2022-11-09T17:37:09.302Z,17.10
2022-11-09T17:39:37.044Z,17.10
2022-11-09T17:42:05.108Z,17.10
2022-11-09T17:44:34.951Z,16.90
2022-11-09T17:47:02.956Z,16.80
2022-11-09T17:49:30.798Z,16.80
2022-11-09T17:52:00.335Z,16.80
2022-11-09T17:54:33.967Z,16.60
2022-11-09T17:57:04.639Z,16.50
2022-11-09T17:59:32.587Z,16.60
2022-11-09T18:02:00.457Z,16.60
2022-11-09T18:04:28.402Z,16.70
2022-11-09T18:06:56.258Z,16.70
2022-11-09T18:09:42.082Z,16.70
2022-11-09T18:12:10.448Z,16.70
2022-11-09T18:14:38.358Z,16.60
2022-11-09T18:17:06.172Z,16.50
2022-11-09T18:19:34.214Z,16.30
2022-11-09T18:22:03.167Z,16.40
2022-11-09T18:24:34.316Z,16.20
2022-11-09T18:27:02.270Z,16.20
2022-11-09T18:29:30.072Z,16.30
2022-11-09T18:31:57.926Z,16.40
2022-11-09T18:34:25.731Z,16.50
2022-11-09T18:36:53.858Z,16.40
2022-11-09T18:39:21.683Z,16.50
2022-11-09T18:41:52.085Z,16.50
2022-11-09T18:44:21.336Z,16.40
2022-11-09T18:46:49.161Z,16.50
2022-11-09T18:49:17.872Z,16.50
2022-11-09T18:51:45.684Z,16.60
2022-11-09T18:54:13.529Z,16.70
2022-11-09T18:56:41.413Z,16.60
2022-11-09T18:59:13.207Z,16.60
2022-11-09T19:01:41.045Z,16.50
2022-11-09T19:04:10.586Z,16.60
2022-11-09T19:06:38.453Z,16.60
2022-11-09T19:09:23.814Z,16.70
2022-11-09T19:11:51.610Z,16.70
2022-11-09T19:14:20.773Z,16.60
2022-11-09T19:16:48.719Z,16.60
2022-11-09T19:19:16.937Z,16.60
2022-11-09T19:21:48.387Z,16.70
2022-11-09T19:24:18.630Z,16.70
2022-11-09T19:26:46.673Z,16.70
2022-11-09T19:29:15.744Z,16.30
2022-11-09T19:31:46.153Z,16.20
2022-11-09T19:34:15.303Z,16.20
2022-11-09T19:36:45.653Z,16.30
2022-11-09T19:39:13.746Z,16.10
2022-11-09T19:41:41.870Z,15.90
2022-11-09T19:44:12.699Z,16.10
2022-11-09T19:46:40.945Z,16.30
2022-11-09T19:49:10.365Z,16.30
2022-11-09T19:51:39.241Z,16.30
2022-11-09T19:54:08.218Z,16.10
2022-11-09T19:56:37.182Z,16.20
2022-11-09T19:59:06.881Z,16.00
2022-11-09T20:01:35.719Z,15.90
2022-11-09T20:04:09.037Z,16.00
2022-11-09T20:06:42.320Z,16.10
2022-11-09T20:09:10.232Z,16.10
2022-11-09T20:11:55.471Z,16.10
2022-11-09T20:14:23.379Z,16.10
2022-11-09T20:16:51.718Z,16.10
2022-11-09T20:19:19.979Z,16.10
2022-11-09T20:21:49.577Z,16.00
2022-11-09T20:24:17.353Z,15.70
2022-11-09T20:26:45.186Z,15.50
2022-11-09T20:29:12.994Z,15.60
2022-11-09T20:31:41.318Z,15.70
2022-11-09T20:34:09.181Z,15.80
2022-11-09T20:36:37.158Z,15.70
2022-11-09T20:39:06.656Z,15.90
2022-11-09T20:41:35.669Z,16.00
2022-11-09T20:44:03.573Z,16.10
2022-11-09T20:46:36.094Z,16.00
2022-11-09T20:49:04.681Z,15.70
2022-11-09T20:51:32.615Z,15.80
2022-11-09T20:54:06.601Z,15.90
2022-11-09T20:56:37.597Z,15.80
2022-11-09T20:59:06.035Z,15.90
2022-11-09T21:01:34.116Z,15.90
2022-11-09T21:04:01.958Z,15.70
2022-11-09T21:06:30.892Z,15.70
2022-11-09T21:09:00.837Z,15.80
2022-11-09T21:11:35.447Z,15.70
2022-11-09T21:14:04.642Z,15.60
2022-11-09T21:16:32.426Z,15.50
2022-11-09T21:19:00.254Z,15.60
2022-11-09T21:21:32.067Z,15.50
2022-11-09T21:24:20.602Z,15.20
2022-11-09T21:27:06.048Z,15.10
2022-11-09T21:29:53.307Z,14.90
2022-11-09T21:32:22.273Z,15.10
2022-11-09T21:34:51.382Z,15.30
2022-11-09T21:37:19.172Z,15.30
2022-11-09T21:39:47.523Z,15.40
2022-11-09T21:42:15.474Z,15.50
2022-11-09T21:44:44.656Z,15.50
2022-11-09T21:47:12.569Z,15.50
2022-11-09T21:49:40.361Z,15.40
2022-11-09T21:52:08.217Z,15.10
2022-11-09T21:54:36.036Z,15.10
2022-11-09T21:57:04.000Z,15.40
2022-11-09T21:59:31.923Z,15.30
2022-11-09T22:02:01.076Z,15.00
2022-11-09T22:04:28.969Z,14.90
2022-11-09T22:06:56.889Z,14.70
2022-11-09T22:09:24.770Z,14.90
2022-11-09T22:12:10.374Z,15.20
2022-11-09T22:14:55.868Z,15.00
2022-11-09T22:17:25.032Z,15.00
2022-11-09T22:20:10.558Z,15.00
2022-11-09T22:22:38.339Z,14.90
2022-11-09T22:25:07.274Z,14.90
2022-11-09T22:27:35.260Z,15.00
2022-11-09T22:30:03.106Z,15.10
2022-11-09T22:32:32.251Z,15.10
2022-11-09T22:35:00.276Z,15.00
2022-11-09T22:37:28.101Z,15.00
2022-11-09T22:39:55.935Z,14.90
2022-11-09T22:42:23.795Z,14.90
2022-11-09T22:44:51.598Z,15.10
2022-11-09T22:47:19.540Z,15.20
2022-11-09T22:49:48.690Z,15.30
2022-11-09T22:52:16.508Z,15.10
2022-11-09T22:54:44.315Z,14.90
2022-11-09T22:57:12.455Z,15.00
2022-11-09T22:59:42.460Z,15.10
2022-11-09T23:02:10.302Z,15.00
2022-11-09T23:04:38.130Z,14.80
2022-11-09T23:07:07.350Z,14.90
2022-11-09T23:09:35.217Z,15.10
2022-11-09T23:12:06.071Z,15.30
2022-11-09T23:14:51.264Z,15.10
2022-11-09T23:17:37.091Z,15.20
2022-11-09T23:20:05.578Z,15.30
2022-11-09T23:22:35.426Z,15.20
2022-11-09T23:25:21.017Z,15.10
2022-11-09T23:27:51.484Z,15.10
2022-11-09T23:30:19.744Z,15.20
2022-11-09T23:32:47.657Z,15.20
2022-11-09T23:35:15.996Z,15.10
2022-11-09T23:37:45.146Z,15.10
2022-11-09T23:40:13.986Z,15.10
2022-11-09T23:42:41.876Z,15.10
2022-11-09T23:45:10.683Z,15.20
2022-11-09T23:47:38.507Z,15.20
2022-11-09T23:50:07.367Z,15.10
2022-11-09T23:52:35.289Z,15.00
2022-11-09T23:55:04.884Z,14.90
2022-11-09T23:57:32.758Z,14.80
